sensor_id;sensor_type;location;lat;lon;timestamp;pressure;altitude;pressure_sealevel;temperature
75211;BMP280;63796;53.136;14.882;2022-12-24T00:00:37;100231.02;;;7.49
75211;BMP280;63796;53.136;14.882;2022-12-24T00:03:06;100232.81;;;7.47
75211;BMP280;63796;53.136;14.882;2022-12-24T00:05:32;100232.59;;;7.50
75211;BMP280;63796;53.136;14.882;2022-12-24T00:07:59;100236.27;;;7.51
75211;BMP280;63796;53.136;14.882;2022-12-24T00:10:25;100226.33;;;7.50
75211;BMP280;63796;53.136;14.882;2022-12-24T00:12:52;100228.20;;;7.52
75211;BMP280;63796;53.136;14.882;2022-12-24T00:15:19;100226.75;;;7.53
75211;BMP280;63796;53.136;14.882;2022-12-24T00:17:45;100224.34;;;7.53
75211;BMP280;63796;53.136;14.882;2022-12-24T00:20:12;100222.00;;;7.49
75211;BMP280;63796;53.136;14.882;2022-12-24T00:22:39;100231.09;;;7.44
75211;BMP280;63796;53.136;14.882;2022-12-24T00:25:06;100232.11;;;7.40
75211;BMP280;63796;53.136;14.882;2022-12-24T00:27:32;100231.05;;;7.35
75211;BMP280;63796;53.136;14.882;2022-12-24T00:29:59;100234.11;;;7.35
75211;BMP280;63796;53.136;14.882;2022-12-24T00:32:28;100234.33;;;7.33
75211;BMP280;63796;53.136;14.882;2022-12-24T00:34:55;100228.39;;;7.30
75211;BMP280;63796;53.136;14.882;2022-12-24T00:37:22;100226.02;;;7.27
75211;BMP280;63796;53.136;14.882;2022-12-24T00:39:48;100229.50;;;7.22
75211;BMP280;63796;53.136;14.882;2022-12-24T00:42:15;100230.69;;;7.16
75211;BMP280;63796;53.136;14.882;2022-12-24T00:44:42;100230.13;;;7.11
75211;BMP280;63796;53.136;14.882;2022-12-24T00:47:09;100235.66;;;7.07
75211;BMP280;63796;53.136;14.882;2022-12-24T00:49:36;100237.03;;;7.01
75211;BMP280;63796;53.136;14.882;2022-12-24T00:52:02;100242.81;;;7.00
75211;BMP280;63796;53.136;14.882;2022-12-24T00:54:29;100237.59;;;6.96
75211;BMP280;63796;53.136;14.882;2022-12-24T00:56:56;100235.48;;;6.95
75211;BMP280;63796;53.136;14.882;2022-12-24T00:59:24;100234.78;;;7.00
75211;BMP280;63796;53.136;14.882;2022-12-24T01:01:51;100234.38;;;7.07
75211;BMP280;63796;53.136;14.882;2022-12-24T01:04:17;100237.15;;;7.04
75211;BMP280;63796;53.136;14.882;2022-12-24T01:07:02;100235.73;;;7.03
75211;BMP280;63796;53.136;14.882;2022-12-24T01:09:36;100234.44;;;7.02
75211;BMP280;63796;53.136;14.882;2022-12-24T01:12:03;100234.37;;;7.06
75211;BMP280;63796;53.136;14.882;2022-12-24T01:14:30;100244.02;;;7.06
75211;BMP280;63796;53.136;14.882;2022-12-24T01:16:56;100246.12;;;7.07
75211;BMP280;63796;53.136;14.882;2022-12-24T01:19:23;100243.86;;;7.07
75211;BMP280;63796;53.136;14.882;2022-12-24T01:21:50;100249.30;;;7.08
75211;BMP280;63796;53.136;14.882;2022-12-24T01:24:18;100247.97;;;7.11
75211;BMP280;63796;53.136;14.882;2022-12-24T01:26:45;100250.69;;;7.13
75211;BMP280;63796;53.136;14.882;2022-12-24T01:29:11;100256.31;;;7.13
75211;BMP280;63796;53.136;14.882;2022-12-24T01:31:38;100259.19;;;7.15
75211;BMP280;63796;53.136;14.882;2022-12-24T01:34:05;100253.56;;;7.14
75211;BMP280;63796;53.136;14.882;2022-12-24T01:36:31;100260.34;;;7.13
75211;BMP280;63796;53.136;14.882;2022-12-24T01:38:58;100260.42;;;7.17
75211;BMP280;63796;53.136;14.882;2022-12-24T01:41:25;100259.66;;;7.17
75211;BMP280;63796;53.136;14.882;2022-12-24T01:44:30;100266.30;;;7.14
75211;BMP280;63796;53.136;14.882;2022-12-24T01:49:41;100262.11;;;7.13
75211;BMP280;63796;53.136;14.882;2022-12-24T01:52:20;100263.92;;;7.10
75211;BMP280;63796;53.136;14.882;2022-12-24T01:54:51;100269.05;;;7.11
75211;BMP280;63796;53.136;14.882;2022-12-24T01:57:38;100273.20;;;7.14
75211;BMP280;63796;53.136;14.882;2022-12-24T02:00:03;100279.16;;;7.13
75211;BMP280;63796;53.136;14.882;2022-12-24T02:02:29;100282.88;;;7.12
75211;BMP280;63796;53.136;14.882;2022-12-24T02:07:51;100289.24;;;7.16
75211;BMP280;63796;53.136;14.882;2022-12-24T02:12:54;100294.65;;;7.21
75211;BMP280;63796;53.136;14.882;2022-12-24T02:15:22;100293.41;;;7.18
75211;BMP280;63796;53.136;14.882;2022-12-24T02:18:38;100290.37;;;7.16
75211;BMP280;63796;53.136;14.882;2022-12-24T02:27:15;100294.50;;;7.08
75211;BMP280;63796;53.136;14.882;2022-12-24T02:30:03;100291.37;;;7.03
75211;BMP280;63796;53.136;14.882;2022-12-24T02:32:57;100292.02;;;7.03
75211;BMP280;63796;53.136;14.882;2022-12-24T02:41:00;100307.37;;;7.09
75211;BMP280;63796;53.136;14.882;2022-12-24T02:43:33;100300.77;;;7.08
75211;BMP280;63796;53.136;14.882;2022-12-24T02:46:20;100307.41;;;7.05
75211;BMP280;63796;53.136;14.882;2022-12-24T02:48:48;100303.27;;;7.02
75211;BMP280;63796;53.136;14.882;2022-12-24T02:51:22;100302.38;;;6.96
75211;BMP280;63796;53.136;14.882;2022-12-24T02:53:50;100300.70;;;7.00
75211;BMP280;63796;53.136;14.882;2022-12-24T02:56:35;100309.53;;;7.02
75211;BMP280;63796;53.136;14.882;2022-12-24T03:05:02;100318.22;;;7.02
75211;BMP280;63796;53.136;14.882;2022-12-24T03:13:17;100325.92;;;6.92
75211;BMP280;63796;53.136;14.882;2022-12-24T03:15:46;100319.34;;;6.90
75211;BMP280;63796;53.136;14.882;2022-12-24T03:18:19;100325.97;;;6.86
75211;BMP280;63796;53.136;14.882;2022-12-24T03:21:06;100322.94;;;6.84
75211;BMP280;63796;53.136;14.882;2022-12-24T03:23:36;100333.52;;;6.88
75211;BMP280;63796;53.136;14.882;2022-12-24T03:26:08;100331.08;;;6.90
75211;BMP280;63796;53.136;14.882;2022-12-24T03:28:38;100334.45;;;6.89
75211;BMP280;63796;53.136;14.882;2022-12-24T03:31:07;100328.34;;;6.89
75211;BMP280;63796;53.136;14.882;2022-12-24T03:33:34;100340.23;;;6.92
75211;BMP280;63796;53.136;14.882;2022-12-24T03:36:01;100338.92;;;6.93
75211;BMP280;63796;53.136;14.882;2022-12-24T03:38:28;100340.83;;;6.94
75211;BMP280;63796;53.136;14.882;2022-12-24T03:40:55;100334.18;;;6.98
75211;BMP280;63796;53.136;14.882;2022-12-24T03:43:22;100337.70;;;7.01
75211;BMP280;63796;53.136;14.882;2022-12-24T03:45:48;100340.12;;;6.98
75211;BMP280;63796;53.136;14.882;2022-12-24T03:48:15;100331.49;;;6.96
75211;BMP280;63796;53.136;14.882;2022-12-24T03:50:42;100340.59;;;7.00
75211;BMP280;63796;53.136;14.882;2022-12-24T03:53:08;100339.49;;;6.99
75211;BMP280;63796;53.136;14.882;2022-12-24T03:55:36;100339.98;;;6.97
75211;BMP280;63796;53.136;14.882;2022-12-24T03:58:03;100347.73;;;6.96
75211;BMP280;63796;53.136;14.882;2022-12-24T04:00:30;100356.58;;;6.96
75211;BMP280;63796;53.136;14.882;2022-12-24T04:02:57;100352.44;;;6.93
75211;BMP280;63796;53.136;14.882;2022-12-24T04:05:24;100350.48;;;6.94
75211;BMP280;63796;53.136;14.882;2022-12-24T04:07:51;100360.43;;;6.95
75211;BMP280;63796;53.136;14.882;2022-12-24T04:10:17;100354.97;;;6.96
75211;BMP280;63796;53.136;14.882;2022-12-24T04:12:44;100361.56;;;6.96
75211;BMP280;63796;53.136;14.882;2022-12-24T04:15:11;100365.08;;;6.98
75211;BMP280;63796;53.136;14.882;2022-12-24T04:17:38;100363.33;;;6.96
75211;BMP280;63796;53.136;14.882;2022-12-24T04:20:06;100366.90;;;6.92
75211;BMP280;63796;53.136;14.882;2022-12-24T04:22:33;100368.87;;;6.90
75211;BMP280;63796;53.136;14.882;2022-12-24T04:25:00;100364.56;;;6.86
75211;BMP280;63796;53.136;14.882;2022-12-24T04:27:26;100366.37;;;6.84
75211;BMP280;63796;53.136;14.882;2022-12-24T04:29:54;100375.86;;;6.81
75211;BMP280;63796;53.136;14.882;2022-12-24T04:32:23;100381.98;;;6.82
75211;BMP280;63796;53.136;14.882;2022-12-24T04:34:53;100383.88;;;6.85
75211;BMP280;63796;53.136;14.882;2022-12-24T04:37:20;100381.30;;;6.85
75211;BMP280;63796;53.136;14.882;2022-12-24T04:39:47;100383.25;;;6.84
75211;BMP280;63796;53.136;14.882;2022-12-24T04:42:14;100385.50;;;6.83
75211;BMP280;63796;53.136;14.882;2022-12-24T04:44:41;100387.26;;;6.85
75211;BMP280;63796;53.136;14.882;2022-12-24T04:47:07;100391.89;;;6.86
75211;BMP280;63796;53.136;14.882;2022-12-24T04:49:36;100396.37;;;6.90
75211;BMP280;63796;53.136;14.882;2022-12-24T04:52:02;100393.11;;;6.92
75211;BMP280;63796;53.136;14.882;2022-12-24T04:54:29;100395.47;;;6.97
75211;BMP280;63796;53.136;14.882;2022-12-24T04:56:57;100394.99;;;6.98
75211;BMP280;63796;53.136;14.882;2022-12-24T04:59:24;100398.06;;;6.96
75211;BMP280;63796;53.136;14.882;2022-12-24T05:01:51;100410.29;;;6.96
75211;BMP280;63796;53.136;14.882;2022-12-24T05:04:18;100411.08;;;6.98
75211;BMP280;63796;53.136;14.882;2022-12-24T05:06:44;100416.04;;;6.99
75211;BMP280;63796;53.136;14.882;2022-12-24T05:09:14;100417.81;;;6.99
75211;BMP280;63796;53.136;14.882;2022-12-24T05:11:40;100418.80;;;6.96
75211;BMP280;63796;53.136;14.882;2022-12-24T05:14:07;100417.38;;;6.94
75211;BMP280;63796;53.136;14.882;2022-12-24T05:16:34;100424.47;;;6.93
75211;BMP280;63796;53.136;14.882;2022-12-24T05:19:01;100417.70;;;6.94
75211;BMP280;63796;53.136;14.882;2022-12-24T05:21:28;100413.98;;;6.96
75211;BMP280;63796;53.136;14.882;2022-12-24T05:23:55;100414.11;;;6.99
75211;BMP280;63796;53.136;14.882;2022-12-24T05:26:53;100419.59;;;6.98
75211;BMP280;63796;53.136;14.882;2022-12-24T05:29:21;100417.98;;;6.98
75211;BMP280;63796;53.136;14.882;2022-12-24T05:31:48;100418.50;;;6.94
75211;BMP280;63796;53.136;14.882;2022-12-24T05:34:16;100429.98;;;6.87
75211;BMP280;63796;53.136;14.882;2022-12-24T05:36:44;100435.52;;;6.82
75211;BMP280;63796;53.136;14.882;2022-12-24T05:39:14;100428.34;;;6.75
75211;BMP280;63796;53.136;14.882;2022-12-24T05:41:42;100431.41;;;6.76
75211;BMP280;63796;53.136;14.882;2022-12-24T05:44:08;100441.34;;;6.76
75211;BMP280;63796;53.136;14.882;2022-12-24T05:46:35;100442.80;;;6.77
75211;BMP280;63796;53.136;14.882;2022-12-24T05:49:02;100450.98;;;6.79
75211;BMP280;63796;53.136;14.882;2022-12-24T05:51:29;100455.95;;;6.80
75211;BMP280;63796;53.136;14.882;2022-12-24T05:53:56;100455.29;;;6.81
75211;BMP280;63796;53.136;14.882;2022-12-24T05:56:24;100462.21;;;6.82
75211;BMP280;63796;53.136;14.882;2022-12-24T05:58:52;100460.42;;;6.84
75211;BMP280;63796;53.136;14.882;2022-12-24T06:01:21;100455.42;;;6.85
75211;BMP280;63796;53.136;14.882;2022-12-24T06:03:49;100458.66;;;6.84
75211;BMP280;63796;53.136;14.882;2022-12-24T06:06:23;100464.89;;;6.86
75211;BMP280;63796;53.136;14.882;2022-12-24T06:08:52;100465.70;;;6.87
75211;BMP280;63796;53.136;14.882;2022-12-24T06:11:26;100463.28;;;6.86
75211;BMP280;63796;53.136;14.882;2022-12-24T06:13:52;100460.44;;;6.82
75211;BMP280;63796;53.136;14.882;2022-12-24T06:16:20;100466.73;;;6.80
75211;BMP280;63796;53.136;14.882;2022-12-24T06:18:47;100472.03;;;6.80
75211;BMP280;63796;53.136;14.882;2022-12-24T06:21:14;100476.36;;;6.79
75211;BMP280;63796;53.136;14.882;2022-12-24T06:23:43;100478.31;;;6.79
75211;BMP280;63796;53.136;14.882;2022-12-24T06:26:14;100482.31;;;6.80
75211;BMP280;63796;53.136;14.882;2022-12-24T06:28:43;100489.71;;;6.80
75211;BMP280;63796;53.136;14.882;2022-12-24T06:31:14;100490.81;;;6.81
75211;BMP280;63796;53.136;14.882;2022-12-24T06:33:42;100494.52;;;6.82
75211;BMP280;63796;53.136;14.882;2022-12-24T06:36:21;100491.80;;;6.80
75211;BMP280;63796;53.136;14.882;2022-12-24T06:38:45;100499.67;;;6.80
75211;BMP280;63796;53.136;14.882;2022-12-24T06:41:13;100501.28;;;6.80
75211;BMP280;63796;53.136;14.882;2022-12-24T06:43:49;100508.34;;;6.84
75211;BMP280;63796;53.136;14.882;2022-12-24T06:46:17;100513.16;;;6.83
75211;BMP280;63796;53.136;14.882;2022-12-24T06:48:45;100513.18;;;6.82
75211;BMP280;63796;53.136;14.882;2022-12-24T06:51:14;100515.25;;;6.84
75211;BMP280;63796;53.136;14.882;2022-12-24T06:53:41;100515.22;;;6.86
75211;BMP280;63796;53.136;14.882;2022-12-24T06:56:11;100516.18;;;6.86
75211;BMP280;63796;53.136;14.882;2022-12-24T06:58:39;100522.50;;;6.82
75211;BMP280;63796;53.136;14.882;2022-12-24T07:01:10;100532.77;;;6.83
75211;BMP280;63796;53.136;14.882;2022-12-24T07:03:38;100531.64;;;6.83
75211;BMP280;63796;53.136;14.882;2022-12-24T07:06:05;100533.58;;;6.83
75211;BMP280;63796;53.136;14.882;2022-12-24T07:08:35;100531.48;;;6.83
75211;BMP280;63796;53.136;14.882;2022-12-24T07:11:02;100534.05;;;6.85
75211;BMP280;63796;53.136;14.882;2022-12-24T07:13:29;100545.30;;;6.84
75211;BMP280;63796;53.136;14.882;2022-12-24T07:16:00;100558.29;;;6.87
75211;BMP280;63796;53.136;14.882;2022-12-24T07:18:28;100555.41;;;6.86
75211;BMP280;63796;53.136;14.882;2022-12-24T07:20:55;100568.45;;;6.84
75211;BMP280;63796;53.136;14.882;2022-12-24T07:23:24;100577.61;;;6.85
75211;BMP280;63796;53.136;14.882;2022-12-24T07:25:51;100578.92;;;6.83
75211;BMP280;63796;53.136;14.882;2022-12-24T07:28:18;100577.15;;;6.81
75211;BMP280;63796;53.136;14.882;2022-12-24T07:58:14;100616.94;;;6.72
75211;BMP280;63796;53.136;14.882;2022-12-24T08:00:41;100619.84;;;6.73
75211;BMP280;63796;53.136;14.882;2022-12-24T08:03:18;100626.77;;;6.67
75211;BMP280;63796;53.136;14.882;2022-12-24T08:05:46;100631.91;;;6.67
75211;BMP280;63796;53.136;14.882;2022-12-24T08:08:14;100633.03;;;6.71
75211;BMP280;63796;53.136;14.882;2022-12-24T08:10:42;100643.28;;;6.77
75211;BMP280;63796;53.136;14.882;2022-12-24T08:13:12;100640.67;;;6.82
75211;BMP280;63796;53.136;14.882;2022-12-24T08:15:39;100637.44;;;6.85
75211;BMP280;63796;53.136;14.882;2022-12-24T08:18:06;100638.05;;;6.88
75211;BMP280;63796;53.136;14.882;2022-12-24T08:20:33;100644.30;;;6.91
75211;BMP280;63796;53.136;14.882;2022-12-24T08:23:02;100647.01;;;6.94
75211;BMP280;63796;53.136;14.882;2022-12-24T08:25:28;100645.89;;;6.94
75211;BMP280;63796;53.136;14.882;2022-12-24T08:27:56;100650.22;;;6.96
75211;BMP280;63796;53.136;14.882;2022-12-24T08:30:23;100655.97;;;6.98
75211;BMP280;63796;53.136;14.882;2022-12-24T08:32:50;100655.50;;;6.99
75211;BMP280;63796;53.136;14.882;2022-12-24T08:35:17;100657.24;;;7.02
75211;BMP280;63796;53.136;14.882;2022-12-24T08:37:43;100663.67;;;7.02
75211;BMP280;63796;53.136;14.882;2022-12-24T08:40:11;100671.57;;;7.03
75211;BMP280;63796;53.136;14.882;2022-12-24T08:42:38;100668.48;;;7.06
75211;BMP280;63796;53.136;14.882;2022-12-24T08:45:06;100669.43;;;7.09
75211;BMP280;63796;53.136;14.882;2022-12-24T08:47:33;100673.60;;;7.08
75211;BMP280;63796;53.136;14.882;2022-12-24T08:50:00;100673.91;;;7.12
75211;BMP280;63796;53.136;14.882;2022-12-24T08:52:27;100684.66;;;7.13
75211;BMP280;63796;53.136;14.882;2022-12-24T08:54:53;100692.27;;;7.11
75211;BMP280;63796;53.136;14.882;2022-12-24T08:57:20;100686.94;;;7.10
75211;BMP280;63796;53.136;14.882;2022-12-24T08:59:47;100698.05;;;7.11
75211;BMP280;63796;53.136;14.882;2022-12-24T09:02:14;100704.47;;;7.12
75211;BMP280;63796;53.136;14.882;2022-12-24T09:04:41;100701.44;;;7.09
75211;BMP280;63796;53.136;14.882;2022-12-24T09:07:09;100702.08;;;7.09
75211;BMP280;63796;53.136;14.882;2022-12-24T09:09:38;100699.66;;;7.08
75211;BMP280;63796;53.136;14.882;2022-12-24T09:12:06;100701.59;;;7.09
75211;BMP280;63796;53.136;14.882;2022-12-24T09:14:35;100703.37;;;7.09
75211;BMP280;63796;53.136;14.882;2022-12-24T09:17:03;100709.14;;;7.10
75211;BMP280;63796;53.136;14.882;2022-12-24T09:19:30;100706.06;;;7.13
75211;BMP280;63796;53.136;14.882;2022-12-24T09:21:57;100708.46;;;7.17
75211;BMP280;63796;53.136;14.882;2022-12-24T09:24:24;100706.94;;;7.26
75211;BMP280;63796;53.136;14.882;2022-12-24T09:26:51;100707.34;;;7.38
75211;BMP280;63796;53.136;14.882;2022-12-24T09:29:18;100712.08;;;7.49
75211;BMP280;63796;53.136;14.882;2022-12-24T09:31:45;100714.85;;;7.61
75211;BMP280;63796;53.136;14.882;2022-12-24T09:34:11;100724.25;;;7.74
75211;BMP280;63796;53.136;14.882;2022-12-24T09:36:38;100728.98;;;7.84
75211;BMP280;63796;53.136;14.882;2022-12-24T09:39:05;100726.64;;;7.91
75211;BMP280;63796;53.136;14.882;2022-12-24T09:45:02;100740.89;;;8.01
75211;BMP280;63796;53.136;14.882;2022-12-24T09:53:04;100739.63;;;8.13
75211;BMP280;63796;53.136;14.882;2022-12-24T09:55:47;100740.02;;;8.21
75211;BMP280;63796;53.136;14.882;2022-12-24T10:01:53;100748.87;;;8.41
75211;BMP280;63796;53.136;14.882;2022-12-24T10:04:26;100753.58;;;8.51
75211;BMP280;63796;53.136;14.882;2022-12-24T10:07:28;100760.43;;;8.57
75211;BMP280;63796;53.136;14.882;2022-12-24T10:12:58;100766.92;;;8.67
75211;BMP280;63796;53.136;14.882;2022-12-24T10:23:48;100767.81;;;9.11
75211;BMP280;63796;53.136;14.882;2022-12-24T10:29:34;100760.44;;;9.30
75211;BMP280;63796;53.136;14.882;2022-12-24T10:34:52;100768.68;;;9.59
75211;BMP280;63796;53.136;14.882;2022-12-24T10:37:23;100768.47;;;9.63
75211;BMP280;63796;53.136;14.882;2022-12-24T10:39:51;100767.41;;;9.58
75211;BMP280;63796;53.136;14.882;2022-12-24T10:42:22;100770.08;;;9.54
75211;BMP280;63796;53.136;14.882;2022-12-24T10:44:54;100773.89;;;9.47
75211;BMP280;63796;53.136;14.882;2022-12-24T10:47:26;100782.50;;;9.44
75211;BMP280;63796;53.136;14.882;2022-12-24T10:50:09;100785.16;;;9.39
75211;BMP280;63796;53.136;14.882;2022-12-24T10:52:38;100783.89;;;9.27
75211;BMP280;63796;53.136;14.882;2022-12-24T10:58:04;100782.08;;;9.06
75211;BMP280;63796;53.136;14.882;2022-12-24T11:00:32;100779.13;;;9.09
75211;BMP280;63796;53.136;14.882;2022-12-24T11:05:40;100775.52;;;9.36
75211;BMP280;63796;53.136;14.882;2022-12-24T11:08:16;100768.61;;;9.45
75211;BMP280;63796;53.136;14.882;2022-12-24T11:11:05;100774.16;;;9.51
75211;BMP280;63796;53.136;14.882;2022-12-24T11:13:54;100783.60;;;9.46
75211;BMP280;63796;53.136;14.882;2022-12-24T11:18:52;100790.95;;;9.50
75211;BMP280;63796;53.136;14.882;2022-12-24T11:21:29;100790.69;;;9.47
75211;BMP280;63796;53.136;14.882;2022-12-24T11:26:43;100790.70;;;9.56
75211;BMP280;63796;53.136;14.882;2022-12-24T11:29:26;100790.38;;;9.56
75211;BMP280;63796;53.136;14.882;2022-12-24T11:32:16;100793.15;;;9.43
75211;BMP280;63796;53.136;14.882;2022-12-24T11:34:44;100798.77;;;9.26
75211;BMP280;63796;53.136;14.882;2022-12-24T11:37:23;100799.64;;;9.07
75211;BMP280;63796;53.136;14.882;2022-12-24T11:39:54;100817.05;;;8.95
75211;BMP280;63796;53.136;14.882;2022-12-24T11:42:33;100814.17;;;8.94
75211;BMP280;63796;53.136;14.882;2022-12-24T11:45:27;100815.66;;;8.91
75211;BMP280;63796;53.136;14.882;2022-12-24T11:47:38;100803.45;;;8.88
75211;BMP280;63796;53.136;14.882;2022-12-24T11:50:30;100813.34;;;8.83
75211;BMP280;63796;53.136;14.882;2022-12-24T11:53:17;100814.17;;;8.70
75211;BMP280;63796;53.136;14.882;2022-12-24T11:55:56;100810.26;;;8.58
75211;BMP280;63796;53.136;14.882;2022-12-24T11:58:46;100812.77;;;8.50
75211;BMP280;63796;53.136;14.882;2022-12-24T12:01:37;100818.25;;;8.50
75211;BMP280;63796;53.136;14.882;2022-12-24T12:04:24;100819.34;;;8.54
75211;BMP280;63796;53.136;14.882;2022-12-24T12:07:05;100828.09;;;8.48
75211;BMP280;63796;53.136;14.882;2022-12-24T12:10:03;100819.45;;;8.44
75211;BMP280;63796;53.136;14.882;2022-12-24T12:12:44;100828.48;;;8.45
75211;BMP280;63796;53.136;14.882;2022-12-24T12:15:13;100829.86;;;8.50
75211;BMP280;63796;53.136;14.882;2022-12-24T12:17:58;100830.82;;;8.64
75211;BMP280;63796;53.136;14.882;2022-12-24T12:20:37;100833.05;;;8.67
75211;BMP280;63796;53.136;14.882;2022-12-24T12:23:32;100832.06;;;8.69
75211;BMP280;63796;53.136;14.882;2022-12-24T12:26:16;100843.53;;;8.67
75211;BMP280;63796;53.136;14.882;2022-12-24T12:31:40;100851.06;;;8.72
75211;BMP280;63796;53.136;14.882;2022-12-24T12:39:31;100853.07;;;8.92
75211;BMP280;63796;53.136;14.882;2022-12-24T12:42:29;100848.14;;;9.01
75211;BMP280;63796;53.136;14.882;2022-12-24T12:48:20;100849.53;;;9.06
75211;BMP280;63796;53.136;14.882;2022-12-24T12:53:56;100844.91;;;8.73
75211;BMP280;63796;53.136;14.882;2022-12-24T12:56:32;100842.73;;;8.65
75211;BMP280;63796;53.136;14.882;2022-12-24T12:59:16;100845.93;;;8.55
75211;BMP280;63796;53.136;14.882;2022-12-24T13:02:10;100853.14;;;8.44
75211;BMP280;63796;53.136;14.882;2022-12-24T13:10:54;100867.53;;;8.18
75211;BMP280;63796;53.136;14.882;2022-12-24T13:21:24;100884.55;;;8.08
75211;BMP280;63796;53.136;14.882;2022-12-24T13:24:28;100877.42;;;8.13
75211;BMP280;63796;53.136;14.882;2022-12-24T13:26:36;100870.77;;;8.16
75211;BMP280;63796;53.136;14.882;2022-12-24T13:29:39;100882.65;;;8.22
75211;BMP280;63796;53.136;14.882;2022-12-24T13:35:22;100888.66;;;8.17
75211;BMP280;63796;53.136;14.882;2022-12-24T13:37:33;100891.41;;;8.13
75211;BMP280;63796;53.136;14.882;2022-12-24T13:48:27;100902.52;;;7.71
75211;BMP280;63796;53.136;14.882;2022-12-24T13:50:59;100901.92;;;7.65
75211;BMP280;63796;53.136;14.882;2022-12-24T13:53:42;100905.02;;;7.59
75211;BMP280;63796;53.136;14.882;2022-12-24T13:56:21;100904.70;;;7.57
75211;BMP280;63796;53.136;14.882;2022-12-24T13:58:54;100913.27;;;7.48
75211;BMP280;63796;53.136;14.882;2022-12-24T14:01:37;100912.03;;;7.35
75211;BMP280;63796;53.136;14.882;2022-12-24T14:04:08;100908.23;;;7.26
75211;BMP280;63796;53.136;14.882;2022-12-24T14:06:40;100906.67;;;7.17
75211;BMP280;63796;53.136;14.882;2022-12-24T14:09:15;100902.48;;;7.13
75211;BMP280;63796;53.136;14.882;2022-12-24T14:14:32;100918.90;;;7.11
75211;BMP280;63796;53.136;14.882;2022-12-24T14:17:23;100919.42;;;7.06
75211;BMP280;63796;53.136;14.882;2022-12-24T14:19:58;100928.58;;;7.07
75211;BMP280;63796;53.136;14.882;2022-12-24T14:22:39;100931.98;;;7.03
75211;BMP280;63796;53.136;14.882;2022-12-24T14:25:20;100938.87;;;7.02
75211;BMP280;63796;53.136;14.882;2022-12-24T14:27:53;100944.02;;;7.02
75211;BMP280;63796;53.136;14.882;2022-12-24T14:30:23;100949.31;;;7.08
75211;BMP280;63796;53.136;14.882;2022-12-24T14:32:52;100956.07;;;7.14
75211;BMP280;63796;53.136;14.882;2022-12-24T14:38:05;100953.92;;;7.25
75211;BMP280;63796;53.136;14.882;2022-12-24T14:40:47;100952.33;;;7.23
75211;BMP280;63796;53.136;14.882;2022-12-24T14:51:53;100970.39;;;7.12
75211;BMP280;63796;53.136;14.882;2022-12-24T14:54:37;100978.79;;;7.01
75211;BMP280;63796;53.136;14.882;2022-12-24T14:59:59;100983.00;;;6.79
75211;BMP280;63796;53.136;14.882;2022-12-24T15:02:49;100985.90;;;6.75
75211;BMP280;63796;53.136;14.882;2022-12-24T15:05:24;100991.53;;;6.74
75211;BMP280;63796;53.136;14.882;2022-12-24T15:08:02;100992.48;;;6.75
75211;BMP280;63796;53.136;14.882;2022-12-24T15:10:39;100997.80;;;6.74
75211;BMP280;63796;53.136;14.882;2022-12-24T15:13:18;101004.88;;;6.74
75211;BMP280;63796;53.136;14.882;2022-12-24T15:15:44;101003.73;;;6.70
75211;BMP280;63796;53.136;14.882;2022-12-24T15:18:19;101013.23;;;6.66
75211;BMP280;63796;53.136;14.882;2022-12-24T15:20:51;101020.14;;;6.65
75211;BMP280;63796;53.136;14.882;2022-12-24T15:23:26;101014.34;;;6.67
75211;BMP280;63796;53.136;14.882;2022-12-24T15:26:30;101006.97;;;6.73
75211;BMP280;63796;53.136;14.882;2022-12-24T15:29:12;101007.77;;;6.79
75211;BMP280;63796;53.136;14.882;2022-12-24T15:31:31;101007.28;;;6.82
75211;BMP280;63796;53.136;14.882;2022-12-24T15:34:00;101019.17;;;6.85
75211;BMP280;63796;53.136;14.882;2022-12-24T15:36:35;101016.75;;;6.88
75211;BMP280;63796;53.136;14.882;2022-12-24T15:39:06;101014.34;;;6.96
75211;BMP280;63796;53.136;14.882;2022-12-24T15:41:40;101016.58;;;7.02
75211;BMP280;63796;53.136;14.882;2022-12-24T15:44:12;101019.61;;;7.08
75211;BMP280;63796;53.136;14.882;2022-12-24T15:46:41;101022.67;;;7.10
75211;BMP280;63796;53.136;14.882;2022-12-24T15:49:12;101028.47;;;7.09
75211;BMP280;63796;53.136;14.882;2022-12-24T15:51:40;101029.73;;;7.09
75211;BMP280;63796;53.136;14.882;2022-12-24T15:54:14;101034.25;;;7.17
75211;BMP280;63796;53.136;14.882;2022-12-24T15:56:43;101030.55;;;7.22
75211;BMP280;63796;53.136;14.882;2022-12-24T16:01:53;101030.04;;;7.22
75211;BMP280;63796;53.136;14.882;2022-12-24T16:04:26;101030.05;;;7.21
75211;BMP280;63796;53.136;14.882;2022-12-24T16:07:01;101023.61;;;7.21
75211;BMP280;63796;53.136;14.882;2022-12-24T16:09:35;101020.72;;;7.23
75211;BMP280;63796;53.136;14.882;2022-12-24T16:12:16;101025.36;;;7.27
75211;BMP280;63796;53.136;14.882;2022-12-24T16:14:38;101022.94;;;7.28
75211;BMP280;63796;53.136;14.882;2022-12-24T16:17:20;101018.27;;;7.32
75211;BMP280;63796;53.136;14.882;2022-12-24T16:19:52;101017.80;;;7.29
75211;BMP280;63796;53.136;14.882;2022-12-24T16:22:24;101030.06;;;7.22
75211;BMP280;63796;53.136;14.882;2022-12-24T16:27:44;101040.36;;;7.16
75211;BMP280;63796;53.136;14.882;2022-12-24T16:30:11;101040.69;;;7.10
75211;BMP280;63796;53.136;14.882;2022-12-24T16:32:39;101047.12;;;7.08
75211;BMP280;63796;53.136;14.882;2022-12-24T16:35:24;101054.68;;;7.11
75211;BMP280;63796;53.136;14.882;2022-12-24T16:37:53;101044.52;;;7.21
75211;BMP280;63796;53.136;14.882;2022-12-24T16:40:20;101050.80;;;7.30
75211;BMP280;63796;53.136;14.882;2022-12-24T16:42:47;101044.81;;;7.39
75211;BMP280;63796;53.136;14.882;2022-12-24T16:45:35;101051.10;;;7.39
75211;BMP280;63796;53.136;14.882;2022-12-24T16:48:06;101051.08;;;7.44
75211;BMP280;63796;53.136;14.882;2022-12-24T16:50:35;101050.42;;;7.46
75211;BMP280;63796;53.136;14.882;2022-12-24T16:53:01;101049.11;;;7.52
75211;BMP280;63796;53.136;14.882;2022-12-24T16:55:28;101051.53;;;7.51
75211;BMP280;63796;53.136;14.882;2022-12-24T16:57:56;101057.03;;;7.49
75211;BMP280;63796;53.136;14.882;2022-12-24T17:00:23;101057.69;;;7.39
75211;BMP280;63796;53.136;14.882;2022-12-24T17:02:52;101066.09;;;7.30